Latest Weather Observations for Hamilton

IDV60801

Issued at 4:31 pm EST Saturday 4 July 2015 (issued every 30 minutes, with the page automatically refreshed every 10 minutes)

About weather observations | Map of weather stations | Latest weather observations for VIC | Other Formats
Station Details ID: 090173 Name: HAMILTON AIRPORT Lat: -37.65 Lon: 142.06 Height: 241.1 m
Data from the previous 72 hours. | See also: Recent months at Hamilton
Date/Time
EST
Temp
°C
App
Temp
°C
Dew
Point
Rel
Hum
%
Delta-T
°C
Wind Press
QNH
hPa
Press
MSL
hPa
Rain
since 9 am
mm
Dir
 
Spd
km/h
Gust
km/h
Spd
kts
Gust
kts
04/04:30pm 8.7 4.7 6.5 86 1.0 NNW 17 20 9 11 1021.4 1021.8 0.6
04/04:00pm 8.7 4.6 6.3 85 1.1 N 17 24 9 13 1021.4 1021.8 0.6
04/03:30pm 8.4 3.8 6.4 87 0.9 N 20 24 11 13 1021.4 1021.8 0.6
04/03:00pm 7.9 3.4 6.2 89 0.8 N 19 22 10 12 1021.5 1021.9 0.6
04/02:55pm 7.8 3.4 6.6 92 0.6 N 19 24 10 13 1021.5 1021.9 0.6
04/02:36pm 7.7 3.2 6.0 89 0.8 NNW 19 24 10 13 1021.6 1022.0 0.6
04/02:30pm 7.9 3.2 5.9 87 0.9 NNW 20 28 11 15 1021.6 1022.0 0.6
04/02:00pm 7.8 2.7 6.1 89 0.8 NNW 22 28 12 15 1021.7 1022.1 0.4
04/01:56pm 7.8 2.7 6.1 89 0.8 NNW 22 26 12 14 1021.7 1022.1 0.4
04/01:30pm 7.9 2.5 6.2 89 0.8 NNW 24 28 13 15 1021.9 1022.3 0.4
04/01:25pm 7.9 2.5 6.5 91 0.7 NNW 24 28 13 15 1022.0 1022.4 0.4
04/01:04pm 7.8 2.3 5.9 88 0.9 NNW 24 30 13 16 1022.2 1022.7 0.4
04/01:00pm 7.9 2.0 6.0 88 0.9 NNW 26 30 14 16 1022.1 1022.6 0.2
04/12:30pm 8.0 3.3 6.1 88 0.9 NNW 20 26 11 14 1022.4 1022.9 0.2
04/12:00pm 7.8 3.1 6.1 89 0.8 NNW 20 26 11 14 1022.8 1023.3 0.2
04/11:33am 7.2 2.5 6.1 93 0.5 NNW 20 26 11 14 1023.2 1023.7 0.2
04/11:30am 7.0 2.2 5.8 92 0.5 NNW 20 28 11 15 1023.2 1023.7 0.2
04/11:13am 7.1 2.3 5.4 89 0.8 NNW 20 24 11 13 1023.5 1024.0 0.0
04/11:00am 7.3 2.5 4.8 84 1.1 NNW 19 24 10 13 1023.5 1024.0 0.0
04/10:30am 7.0 2.0 4.7 85 1.0 NNW 20 26 11 14 1023.6 1024.1 0.0
04/10:00am 7.5 2.4 3.9 78 1.6 N 20 30 11 16 1023.4 1023.9 0.0
04/09:30am 7.2 2.0 3.3 76 1.7 N 20 26 11 14 1023.2 1023.7 0.0
04/09:00am 7.0 1.7 3.1 76 1.7 NNW 20 26 11 14 1023.1 1023.6 0.0
04/08:39am 6.9 1.2 3.0 76 1.7 N 22 28 12 15 1023.1 1023.6 0.0
04/08:30am 6.8 1.5 3.1 77 1.6 NNW 20 26 11 14 1023.0 1023.5 0.0
04/08:00am 6.6 1.3 3.0 78 1.5 NNW 20 26 11 14 1022.9 1023.4 0.0
04/07:30am 6.6 0.9 2.7 76 1.6 N 22 28 12 15 1022.8 1023.3 0.0
04/07:00am 6.6 0.5 3.0 78 1.5 NNW 24 28 13 15 1022.5 1023.0 0.0
04/06:30am 6.8 1.0 2.5 74 1.8 NNW 22 26 12 14 1022.4 1022.9 0.0
04/06:00am 6.7 1.3 2.6 75 1.7 NNW 20 28 11 15 1022.2 1022.7 0.0
04/05:30am 6.5 0.3 2.4 75 1.7 N 24 30 13 16 1021.9 1022.3 0.0
04/05:00am 6.7 1.3 2.4 74 1.8 N 20 24 11 13 1022.3 1022.8 0.0
04/04:30am 6.8 1.6 2.7 75 1.7 NNW 19 24 10 13 1022.5 1023.0 0.0
04/04:00am 6.9 1.5 2.4 73 1.9 NNW 20 28 11 15 1022.5 1023.0 0.0
04/03:30am 6.9 1.5 2.2 72 2.0 NNW 20 26 11 14 1022.6 1023.1 0.0
04/03:00am 6.8 1.3 2.1 72 1.9 NNW 20 26 11 14 1022.7 1023.2 0.0
04/02:30am 6.7 1.5 2.4 74 1.8 N 19 24 10 13 1022.9 1023.4 0.0
04/02:00am 6.7 1.3 2.2 73 1.9 NNW 20 24 11 13 1023.2 1023.7 0.0
04/01:30am 6.6 1.1 2.1 73 1.9 NNW 20 26 11 14 1023.2 1023.7 0.0
04/01:00am 6.2 0.8 2.7 78 1.5 NNW 20 26 11 14 1023.3 1023.8 0.0
04/12:30am 6.3 1.0 2.9 79 1.4 NNW 20 22 11 12 1023.8 1024.3 0.0
04/12:00am 6.8 1.6 2.3 73 1.9 NNW 19 22 10 12 1024.3 1024.7 0.0
 
Date/Time
EST
Temp
°C
App
Temp
°C
Dew
Point
Rel
Hum
%
Delta-T
°C
Wind Press
QNH
hPa
Press
MSL
hPa
Rain
since 9 am
mm
Dir
 
Spd
km/h
Gust
km/h
Spd
kts
Gust
kts
03/11:30pm 6.8 1.9 2.3 73 1.9 NNW 17 20 9 11 1024.4 1024.8 0.0
03/11:00pm 6.9 2.0 2.0 71 2.0 NNW 17 20 9 11 1024.5 1024.9 0.0
03/10:30pm 6.8 1.9 2.1 72 2.0 NNW 17 20 9 11 1024.6 1025.0 0.0
03/10:00pm 6.7 1.5 2.4 74 1.8 NNW 19 22 10 12 1024.6 1025.0 0.0
03/09:30pm 6.7 2.2 2.2 73 1.9 NNW 15 20 8 11 1024.8 1025.2 0.0
03/09:00pm 6.6 1.4 2.3 74 1.8 NNW 19 20 10 11 1024.8 1025.2 0.0
03/08:30pm 6.5 2.0 2.2 74 1.8 NNW 15 19 8 10 1025.0 1025.4 0.0
03/08:00pm 6.5 2.0 2.2 74 1.8 NNW 15 19 8 10 1025.1 1025.5 0.0
03/07:30pm 6.1 2.0 2.0 75 1.7 NNW 13 15 7 8 1025.0 1025.4 0.0
03/07:00pm 6.2 2.0 1.9 74 1.8 NNW 13 15 7 8 1025.0 1025.4 0.0
03/06:30pm 6.2 1.7 1.9 74 1.8 N 15 17 8 9 1024.9 1025.3 0.0
03/06:00pm 6.8 2.0 2.5 74 1.8 N 17 19 9 10 1025.2 1025.6 0.0
03/05:30pm 7.1 2.6 2.4 72 2.0 NNW 15 19 8 10 1025.4 1025.8 0.0
03/05:00pm 7.6 3.2 2.5 70 2.1 NNW 15 19 8 10 1025.5 1025.9 0.0
03/04:30pm 7.8 3.3 2.3 68 2.3 NNW 15 19 8 10 1025.7 1026.2 0.0
03/04:00pm 8.0 2.7 1.8 65 2.6 NNW 19 24 10 13 1025.7 1026.2 0.0
03/03:30pm 8.2 3.2 1.6 63 2.7 NNW 17 20 9 11 1025.8 1026.3 0.0
03/03:00pm 8.4 3.5 2.0 64 2.7 NNW 17 20 9 11 1025.8 1026.3 0.0
03/02:30pm 8.2 3.1 0.9 60 3.0 NNW 17 20 9 11 1025.9 1026.4 0.0
03/02:00pm 8.4 2.7 0.6 58 3.2 NW 20 26 11 14 1026.3 1026.8 0.0
03/01:30pm 8.3 1.9 1.2 61 2.9 WNW 24 32 13 17 1026.8 1027.3 0.0
03/01:00pm 8.1 3.1 1.5 63 2.7 WNW 17 24 9 13 1027.2 1027.7 0.0
03/12:30pm 8.1 2.6 0.8 60 3.0 NW 19 24 10 13 1027.6 1028.1 0.0
03/12:00pm 9.0 4.1 1.9 61 3.0 WNW 17 24 9 13 1028.1 1028.6 0.0
03/11:30am 8.0 3.5 2.0 66 2.5 WNW 15 20 8 11 1028.6 1029.0 0.0
03/11:00am 7.8 3.8 3.1 72 2.0 NNW 13 15 7 8 1028.8 1029.2 0.0
03/10:30am 7.2 4.0 3.3 76 1.7 NNW 9 11 5 6 1028.8 1029.2 0.0
03/10:00am 6.0 2.6 3.8 86 0.9 N 11 13 6 7 1028.9 1029.3 0.0
03/09:30am 4.6 1.0 2.8 88 0.7 N 11 13 6 7 1028.8 1029.2 0.0
03/09:00am 3.7 0.7 2.1 89 0.6 N 7 9 4 5 1029.1 1029.6 -
03/08:30am 3.2 -0.6 1.9 91 0.5 N 11 13 6 7 1029.1 1029.6 -
03/08:00am 2.9 -0.9 1.7 92 0.5 N 11 13 6 7 1029.1 1029.6 -
03/07:30am 2.7 -0.4 1.5 92 0.5 N 7 9 4 5 1028.9 1029.3 -
03/07:00am 2.7 -0.8 1.5 92 0.5 NNW 9 11 5 6 1028.8 1029.2 -
03/06:30am 2.6 -0.8 1.6 93 0.4 N 9 11 5 6 1028.5 1028.9 -
03/06:00am 2.4 -1.1 1.4 93 0.4 NNE 9 9 5 5 1028.3 1028.7 -
03/05:30am 2.0 -1.9 1.1 94 0.3 N 11 13 6 7 1028.4 1028.8 -
03/05:00am 2.0 -1.0 1.1 94 0.3 NNW 6 7 3 4 1028.6 1029.0 -
03/04:30am 1.3 -2.3 0.7 96 0.2 NW 9 11 5 6 1028.6 1029.0 -
03/04:00am 0.1 -3.3 -0.5 96 0.2 NNW 7 9 4 5 1028.6 1029.0 -
03/03:30am -0.5 -4.0 -1.1 96 0.2 NW 7 9 4 5 1028.7 1029.1 -
03/03:00am -0.4 -4.2 -1.1 95 0.2 NW 9 9 5 5 1028.7 1029.1 0.0
03/02:30am -0.2 -4.0 -0.9 95 0.2 NNW 9 11 5 6 1028.6 1029.0 -
03/02:00am 0.3 -3.5 -0.5 94 0.3 NW 9 9 5 5 1028.7 1029.1 -
03/01:30am 1.7 -1.3 0.8 94 0.3 NNW 6 6 3 3 1028.8 1029.2 -
03/01:00am 1.5 -0.4 0.5 93 0.4 CALM 0 6 0 3 1029.1 1029.6 -
03/12:30am 1.5 -0.9 -0.6 86 0.8 N 2 11 1 6 1029.2 1029.7 -
03/12:00am 2.1 0.3 1.1 93 0.4 CALM 0 0 0 0 1029.7 1030.2 -
 
Date/Time
EST
Temp
°C
App
Temp
°C
Dew
Point
Rel
Hum
%
Delta-T
°C
Wind Press
QNH
hPa
Press
MSL
hPa
Rain
since 9 am
mm
Dir
 
Spd
km/h
Gust
km/h
Spd
kts
Gust
kts
02/11:30pm 1.5 -0.4 0.3 92 0.4 CALM 0 0 0 0 1029.9 1030.4 -
02/11:00pm 2.1 -1.1 0.9 92 0.5 NW 7 7 4 4 1029.9 1030.4 -
02/10:30pm 2.2 -1.0 0.9 91 0.5 NW 7 9 4 5 1029.8 1030.3 -
02/10:00pm 1.7 -1.4 0.4 91 0.5 W 6 9 3 5 1029.8 1030.3 -
02/09:30pm 2.6 -0.4 1.0 89 0.6 NNW 6 7 3 4 1029.8 1030.3 -
02/09:00pm 2.9 1.1 1.0 87 0.7 CALM 0 2 0 1 1029.7 1030.2 -
02/08:30pm 4.0 1.0 1.9 86 0.8 S 7 9 4 5 1029.6 1030.1 -
02/08:00pm 4.5 1.6 1.5 81 1.2 SW 6 7 3 4 1029.3 1029.8 -
02/07:30pm 4.9 1.9 1.7 80 1.3 S 7 9 4 5 1029.2 1029.7 -
02/07:00pm 4.8 1.3 1.5 79 1.3 WSW 9 11 5 6 1029.0 1029.5 -
02/06:30pm 4.8 1.3 1.5 79 1.3 SW 9 11 5 6 1028.6 1029.0 -
02/06:00pm 5.3 1.5 1.6 77 1.5 WSW 11 13 6 7 1028.4 1028.8 -
02/05:30pm 6.6 2.5 2.3 74 1.8 SW 13 15 7 8 1028.1 1028.6 -
02/05:00pm 7.5 4.4 3.6 76 1.7 SSW 9 11 5 6 1028.0 1028.5 -
02/04:30pm 7.7 3.7 3.0 72 2.0 SW 13 17 7 9 1027.9 1028.4 -
02/04:00pm 7.6 1.3 3.5 75 1.8 SSW 26 37 14 20 1027.9 1028.4 -
02/03:30pm 9.4 3.9 1.6 58 3.3 SSW 20 26 11 14 1027.2 1027.7 -
02/03:01pm 10.7 7.8 2.8 58 3.5 W 7 46 4 25 1026.9 - -
02/03:00pm 10.6 7.8 2.2 56 3.6 W 6 46 3 25 1026.9 - -
02/02:30pm 9.5 - 0.4 53 3.7 - - - - - 1026.7 1027.2 -
02/01:30pm 10.3 3.0 2.4 58 3.4 SSW 30 39 16 21 1026.3 1026.8 -
02/01:00pm 9.8 2.4 1.7 57 3.4 SSW 30 39 16 21 1026.1 1026.6 -
02/12:30pm 9.3 2.5 3.3 66 2.6 SSW 28 37 15 20 1026.1 1026.6 -
02/12:00pm 9.4 1.8 2.9 64 2.8 SSW 32 39 17 21 1026.0 1026.5 -
02/11:30am 8.9 2.2 3.9 71 2.2 SSW 28 43 15 23 1026.0 - 0.6
02/11:00am - - - - - SW 24 39 13 21 1025.9 1026.4 0.6
02/10:30am - - - - - SW 26 35 14 19 1025.5 1025.9 0.6
02/10:00am - - - - - SW 22 30 12 16 1025.4 1025.8 0.6
02/09:30am - - - - - SW 28 43 15 23 1025.2 1025.6 0.6
02/09:00am 6.9 2.0 5.2 89 0.8 SW 20 32 11 17 1024.6 1025.0 3.4
02/08:30am 6.7 1.9 4.5 86 1.0 WSW 19 24 10 13 1024.3 1024.7 3.4
02/08:00am 6.6 1.5 4.3 85 1.0 WSW 20 26 11 14 1023.7 1024.2 3.0
02/07:30am 7.0 1.8 3.6 79 1.5 W 20 24 11 13 1023.0 1023.5 2.6
02/07:00am 6.9 2.4 4.0 82 1.3 W 17 20 9 11 1022.6 1023.1 2.6
02/06:30am 7.4 1.2 4.5 82 1.3 WSW 26 33 14 18 1022.2 1022.7 2.6
02/06:00am 8.1 2.5 5.4 83 1.2 WSW 24 32 13 17 1022.0 1022.4 2.6
02/05:30am 8.3 3.0 5.1 80 1.4 W 22 32 12 17 1021.4 1021.8 2.6
02/05:00am 7.8 2.9 5.1 83 1.2 WSW 20 28 11 15 1021.4 1021.8 2.6
02/04:30am 8.5 2.6 6.0 84 1.2 WSW 26 33 14 18 1021.4 1021.8 2.6
02/04:00am 9.0 3.4 7.1 88 0.9 WSW 26 33 14 18 1021.3 1021.7 2.6
02/03:30am 9.3 4.7 8.1 92 0.6 WSW 22 28 12 15 1021.1 1021.5 2.6
02/03:16am 9.6 5.1 8.4 92 0.6 W 22 30 12 16 1021.1 1021.5 2.6
02/03:00am 9.6 5.5 8.7 94 0.4 WSW 20 30 11 16 1021.1 1021.5 2.6
02/02:42am 9.8 5.0 8.9 94 0.4 W 24 32 13 17 1021.2 1021.6 2.4
02/02:30am 9.9 5.9 9.0 94 0.4 W 20 30 11 16 1021.1 1021.5 2.4
02/02:27am 9.9 5.5 9.0 94 0.4 W 22 30 12 16 1021.1 1021.5 2.4
02/02:15am 9.9 5.5 8.8 93 0.5 WNW 22 32 12 17 1021.0 1021.4 2.2
02/02:01am 10.0 6.0 8.9 93 0.5 W 20 30 11 16 1020.9 1021.3 2.2
02/02:00am 10.0 6.0 8.9 93 0.5 W 20 30 11 16 1020.9 1021.3 2.2
02/01:44am 10.1 5.3 8.9 92 0.6 WNW 24 33 13 18 1020.9 1021.3 2.2
02/01:40am 10.1 5.7 8.9 92 0.6 WNW 22 30 12 16 1020.8 1021.2 2.2
02/01:30am 10.1 5.3 8.9 92 0.6 W 24 32 13 17 1020.8 1021.2 2.2
02/01:13am 10.0 4.4 8.9 93 0.5 WNW 28 41 15 22 1020.9 1021.3 2.0
02/01:00am 9.7 4.8 8.6 93 0.5 WNW 24 30 13 16 1021.1 1021.5 2.0
02/12:42am 9.8 4.1 8.4 91 0.7 NW 28 35 15 19 1020.8 1021.2 1.4
02/12:30am 9.9 4.2 8.3 90 0.8 NW 28 37 15 20 1020.8 1021.2 1.2
02/12:17am 10.1 4.7 8.2 88 0.9 NW 26 35 14 19 1020.9 1021.3 1.2
02/12:00am 10.0 4.2 8.1 88 0.9 NW 28 37 15 20 1021.1 1021.5 1.2
 
Date/Time
EST
Temp
°C
App
Temp
°C
Dew
Point
Rel
Hum
%
Delta-T
°C
Wind Press
QNH
hPa
Press
MSL
hPa
Rain
since 9 am
mm
Dir
 
Spd
km/h
Gust
km/h
Spd
kts
Gust
kts
01/11:30pm 10.0 3.8 7.9 87 1.0 NW 30 39 16 21 1021.5 1021.9 1.2
01/11:00pm 10.0 4.2 8.1 88 0.9 NW 28 37 15 20 1021.5 1021.9 1.2
01/10:30pm 10.0 4.2 8.1 88 0.9 NW 28 37 15 20 1022.1 1022.6 1.2
01/10:00pm 9.9 4.1 8.0 88 0.9 NW 28 39 15 21 1022.4 1022.9 1.2
01/09:30pm 9.7 3.9 7.8 88 0.9 NW 28 37 15 20 1022.5 1023.0 1.2
01/09:00pm 9.8 4.0 7.9 88 0.9 NW 28 35 15 19 1022.5 1023.0 1.2
01/08:39pm 9.8 4.8 8.1 89 0.8 NW 24 33 13 18 1022.5 1023.0 1.2
01/08:30pm 9.7 4.7 8.1 90 0.8 NW 24 32 13 17 1022.7 1023.2 1.2
01/08:00pm 9.8 4.8 8.2 90 0.8 NW 24 30 13 16 1022.8 1023.3 1.2
01/07:42pm 9.8 5.2 8.2 90 0.8 NW 22 33 12 18 1022.7 1023.2 1.2
01/07:30pm 9.8 5.6 8.2 90 0.8 NW 20 28 11 15 1022.7 1023.2 1.2
01/07:18pm 9.8 5.6 8.4 91 0.7 NW 20 33 11 18 1022.9 1023.4 1.2
01/07:00pm 9.6 5.5 8.5 93 0.5 NW 20 30 11 16 1022.9 1023.4 1.2
01/06:30pm 9.8 4.6 8.7 93 0.5 NW 26 32 14 17 1022.8 1023.3 1.2
01/06:17pm 9.9 5.4 8.7 92 0.6 NW 22 28 12 15 1022.7 1023.2 1.0
01/06:12pm 9.8 5.3 8.6 92 0.6 NW 22 30 12 16 1022.7 1023.2 1.0
01/06:00pm 9.7 5.6 8.6 93 0.5 NW 20 26 11 14 1022.8 1023.3 1.0
01/05:51pm 9.6 4.8 8.7 94 0.4 NW 24 30 13 16 1022.7 1023.2 1.0
01/05:30pm 9.6 5.5 8.8 95 0.4 NW 20 28 11 15 1022.7 1023.2 0.8
01/05:05pm 9.8 5.3 8.7 93 0.5 NW 22 39 12 21 1022.8 1023.3 0.4
01/05:00pm 9.8 5.3 8.7 93 0.5 NW 22 39 12 21 1022.8 1023.3 0.4
01/04:34pm 10.0 5.9 8.6 91 0.7 NW 20 28 11 15 1023.0 1023.5 0.4
01/04:32pm 10.0 5.8 8.4 90 0.8 NW 20 28 11 15 1023.0 1023.5 0.4

Other Formats:

Comma delimited format used in spreadsheet applications
http://www.bom.gov.au/fwo/IDV60801/IDV60801.94829.axf

JavaScript Object Notation format (JSON) in row-major order
http://www.bom.gov.au/fwo/IDV60801/IDV60801.94829.json